sensor_id;sensor_type;location;lat;lon;timestamp;P1;durP1;ratioP1;P2;durP2;ratioP2
19059;SDS011;9663;48.996;8.334;2023-03-31T00:01:32;4.53;;;1.00;;
19059;SDS011;9663;48.996;8.334;2023-03-31T00:04:01;2.35;;;0.80;;
19059;SDS011;9663;48.996;8.334;2023-03-31T00:06:30;2.83;;;0.80;;
19059;SDS011;9663;48.996;8.334;2023-03-31T00:09:03;2.53;;;0.90;;
19059;SDS011;9663;48.996;8.334;2023-03-31T00:11:31;2.92;;;0.77;;
19059;SDS011;9663;48.996;8.334;2023-03-31T00:13:57;2.60;;;0.70;;
19059;SDS011;9663;48.996;8.334;2023-03-31T00:16:23;2.33;;;0.80;;
19059;SDS011;9663;48.996;8.334;2023-03-31T00:18:49;3.20;;;0.80;;
19059;SDS011;9663;48.996;8.334;2023-03-31T00:21:20;4.68;;;1.20;;
19059;SDS011;9663;48.996;8.334;2023-03-31T00:23:54;4.93;;;1.00;;
19059;SDS011;9663;48.996;8.334;2023-03-31T00:26:23;2.60;;;0.80;;
19059;SDS011;9663;48.996;8.334;2023-03-31T00:28:50;3.45;;;0.95;;
19059;SDS011;9663;48.996;8.334;2023-03-31T00:31:17;3.95;;;0.98;;
19059;SDS011;9663;48.996;8.334;2023-03-31T00:33:44;1.83;;;0.73;;
19059;SDS011;9663;48.996;8.334;2023-03-31T00:36:10;3.75;;;1.00;;
19059;SDS011;9663;48.996;8.334;2023-03-31T00:38:36;2.50;;;0.88;;
19059;SDS011;9663;48.996;8.334;2023-03-31T00:41:02;1.75;;;0.70;;
19059;SDS011;9663;48.996;8.334;2023-03-31T00:43:31;2.85;;;0.90;;
19059;SDS011;9663;48.996;8.334;2023-03-31T00:48:47;4.72;;;1.10;;
19059;SDS011;9663;48.996;8.334;2023-03-31T00:51:17;2.00;;;0.80;;
19059;SDS011;9663;48.996;8.334;2023-03-31T00:53:47;3.10;;;0.77;;
19059;SDS011;9663;48.996;8.334;2023-03-31T00:56:24;2.35;;;0.70;;
19059;SDS011;9663;48.996;8.334;2023-03-31T00:58:56;3.65;;;1.13;;
19059;SDS011;9663;48.996;8.334;2023-03-31T01:01:27;4.28;;;0.95;;
19059;SDS011;9663;48.996;8.334;2023-03-31T01:03:54;2.63;;;0.90;;
19059;SDS011;9663;48.996;8.334;2023-03-31T01:06:21;2.83;;;0.90;;
19059;SDS011;9663;48.996;8.334;2023-03-31T01:08:49;3.60;;;1.10;;
19059;SDS011;9663;48.996;8.334;2023-03-31T01:11:18;3.45;;;1.00;;
19059;SDS011;9663;48.996;8.334;2023-03-31T01:13:47;2.88;;;0.88;;
19059;SDS011;9663;48.996;8.334;2023-03-31T01:16:17;2.05;;;0.80;;
19059;SDS011;9663;48.996;8.334;2023-03-31T01:18:43;2.75;;;0.70;;
19059;SDS011;9663;48.996;8.334;2023-03-31T01:24:18;2.92;;;0.80;;
19059;SDS011;9663;48.996;8.334;2023-03-31T01:30:26;2.75;;;0.80;;
19059;SDS011;9663;48.996;8.334;2023-03-31T01:33:05;2.55;;;0.80;;
19059;SDS011;9663;48.996;8.334;2023-03-31T01:47:25;3.65;;;0.85;;
19059;SDS011;9663;48.996;8.334;2023-03-31T01:50:09;3.22;;;0.90;;
19059;SDS011;9663;48.996;8.334;2023-03-31T01:55:34;2.72;;;0.70;;
19059;SDS011;9663;48.996;8.334;2023-03-31T01:58:06;2.30;;;0.80;;
19059;SDS011;9663;48.996;8.334;2023-03-31T02:00:47;2.60;;;0.88;;
19059;SDS011;9663;48.996;8.334;2023-03-31T02:03:27;3.20;;;0.70;;
19059;SDS011;9663;48.996;8.334;2023-03-31T02:06:02;3.28;;;0.93;;
19059;SDS011;9663;48.996;8.334;2023-03-31T02:08:38;3.47;;;0.90;;
19059;SDS011;9663;48.996;8.334;2023-03-31T02:11:13;4.18;;;1.00;;
19059;SDS011;9663;48.996;8.334;2023-03-31T02:13:40;1.77;;;0.77;;
19059;SDS011;9663;48.996;8.334;2023-03-31T02:16:12;3.40;;;0.80;;
19059;SDS011;9663;48.996;8.334;2023-03-31T02:18:48;4.88;;;0.90;;
19059;SDS011;9663;48.996;8.334;2023-03-31T02:21:19;1.73;;;0.73;;
19059;SDS011;9663;48.996;8.334;2023-03-31T02:23:46;3.22;;;0.90;;
19059;SDS011;9663;48.996;8.334;2023-03-31T02:26:17;3.17;;;0.88;;
19059;SDS011;9663;48.996;8.334;2023-03-31T02:28:49;2.78;;;0.90;;
19059;SDS011;9663;48.996;8.334;2023-03-31T02:31:26;2.30;;;0.90;;
19059;SDS011;9663;48.996;8.334;2023-03-31T02:34:00;2.40;;;0.90;;
19059;SDS011;9663;48.996;8.334;2023-03-31T02:36:27;3.55;;;1.00;;
19059;SDS011;9663;48.996;8.334;2023-03-31T02:38:58;3.53;;;1.00;;
19059;SDS011;9663;48.996;8.334;2023-03-31T02:41:33;2.42;;;0.77;;
19059;SDS011;9663;48.996;8.334;2023-03-31T02:43:59;3.03;;;1.00;;
19059;SDS011;9663;48.996;8.334;2023-03-31T02:46:25;2.55;;;0.85;;
19059;SDS011;9663;48.996;8.334;2023-03-31T02:48:56;3.95;;;1.00;;
19059;SDS011;9663;48.996;8.334;2023-03-31T02:51:28;2.78;;;1.00;;
19059;SDS011;9663;48.996;8.334;2023-03-31T02:54:46;3.15;;;1.05;;
19059;SDS011;9663;48.996;8.334;2023-03-31T03:04:26;2.75;;;0.90;;
19059;SDS011;9663;48.996;8.334;2023-03-31T03:06:55;2.78;;;1.00;;
19059;SDS011;9663;48.996;8.334;2023-03-31T03:17:41;2.45;;;0.82;;
19059;SDS011;9663;48.996;8.334;2023-03-31T03:20:10;3.47;;;1.00;;
19059;SDS011;9663;48.996;8.334;2023-03-31T03:22:40;2.88;;;0.90;;
19059;SDS011;9663;48.996;8.334;2023-03-31T03:25:07;3.40;;;0.88;;
19059;SDS011;9663;48.996;8.334;2023-03-31T03:27:37;2.25;;;0.85;;
19059;SDS011;9663;48.996;8.334;2023-03-31T03:30:05;2.55;;;0.85;;
19059;SDS011;9663;48.996;8.334;2023-03-31T03:32:34;3.42;;;1.20;;
19059;SDS011;9663;48.996;8.334;2023-03-31T03:35:00;2.80;;;1.00;;
19059;SDS011;9663;48.996;8.334;2023-03-31T03:37:27;2.03;;;0.80;;
19059;SDS011;9663;48.996;8.334;2023-03-31T03:39:53;3.85;;;1.15;;
19059;SDS011;9663;48.996;8.334;2023-03-31T03:42:19;3.13;;;0.98;;
19059;SDS011;9663;48.996;8.334;2023-03-31T03:44:45;4.13;;;1.10;;
19059;SDS011;9663;48.996;8.334;2023-03-31T03:47:11;2.45;;;0.90;;
19059;SDS011;9663;48.996;8.334;2023-03-31T03:49:37;3.83;;;1.35;;
19059;SDS011;9663;48.996;8.334;2023-03-31T03:52:03;2.55;;;0.80;;
19059;SDS011;9663;48.996;8.334;2023-03-31T03:54:28;2.72;;;1.10;;
19059;SDS011;9663;48.996;8.334;2023-03-31T03:56:54;2.55;;;0.98;;
19059;SDS011;9663;48.996;8.334;2023-03-31T03:59:20;2.22;;;0.93;;
19059;SDS011;9663;48.996;8.334;2023-03-31T04:01:46;2.40;;;1.00;;
19059;SDS011;9663;48.996;8.334;2023-03-31T04:04:11;3.03;;;1.10;;
19059;SDS011;9663;48.996;8.334;2023-03-31T04:06:37;3.17;;;0.95;;
19059;SDS011;9663;48.996;8.334;2023-03-31T04:09:03;2.63;;;0.90;;
19059;SDS011;9663;48.996;8.334;2023-03-31T04:11:29;4.88;;;1.00;;
19059;SDS011;9663;48.996;8.334;2023-03-31T04:13:55;3.92;;;1.20;;
19059;SDS011;9663;48.996;8.334;2023-03-31T04:16:21;2.45;;;1.00;;
19059;SDS011;9663;48.996;8.334;2023-03-31T04:18:52;2.47;;;0.80;;
19059;SDS011;9663;48.996;8.334;2023-03-31T04:21:21;2.60;;;1.00;;
19059;SDS011;9663;48.996;8.334;2023-03-31T04:23:51;3.15;;;1.05;;
19059;SDS011;9663;48.996;8.334;2023-03-31T04:26:32;2.38;;;1.00;;
19059;SDS011;9663;48.996;8.334;2023-03-31T04:29:08;3.78;;;1.20;;
19059;SDS011;9663;48.996;8.334;2023-03-31T04:31:44;2.85;;;1.02;;
19059;SDS011;9663;48.996;8.334;2023-03-31T04:34:10;2.58;;;0.90;;
19059;SDS011;9663;48.996;8.334;2023-03-31T04:36:40;3.78;;;0.93;;
19059;SDS011;9663;48.996;8.334;2023-03-31T04:39:11;3.20;;;0.98;;
19059;SDS011;9663;48.996;8.334;2023-03-31T04:41:42;5.10;;;1.23;;
19059;SDS011;9663;48.996;8.334;2023-03-31T04:44:08;3.40;;;1.00;;
19059;SDS011;9663;48.996;8.334;2023-03-31T04:46:34;3.38;;;1.08;;
19059;SDS011;9663;48.996;8.334;2023-03-31T04:49:00;2.65;;;1.10;;
19059;SDS011;9663;48.996;8.334;2023-03-31T04:51:27;2.65;;;0.90;;
19059;SDS011;9663;48.996;8.334;2023-03-31T04:53:53;2.60;;;1.00;;
19059;SDS011;9663;48.996;8.334;2023-03-31T04:56:19;2.15;;;0.90;;
19059;SDS011;9663;48.996;8.334;2023-03-31T04:58:46;2.25;;;0.93;;
19059;SDS011;9663;48.996;8.334;2023-03-31T05:01:12;2.95;;;0.98;;
19059;SDS011;9663;48.996;8.334;2023-03-31T05:03:42;2.17;;;0.98;;
19059;SDS011;9663;48.996;8.334;2023-03-31T05:06:10;2.17;;;0.90;;
19059;SDS011;9663;48.996;8.334;2023-03-31T05:08:36;4.07;;;1.27;;
19059;SDS011;9663;48.996;8.334;2023-03-31T05:11:02;2.88;;;1.17;;
19059;SDS011;9663;48.996;8.334;2023-03-31T05:13:28;3.45;;;1.10;;
19059;SDS011;9663;48.996;8.334;2023-03-31T05:15:54;3.05;;;1.00;;
19059;SDS011;9663;48.996;8.334;2023-03-31T05:18:20;2.88;;;1.02;;
19059;SDS011;9663;48.996;8.334;2023-03-31T05:20:45;3.45;;;1.20;;
19059;SDS011;9663;48.996;8.334;2023-03-31T05:23:11;4.65;;;1.30;;
19059;SDS011;9663;48.996;8.334;2023-03-31T05:25:37;3.47;;;1.10;;
19059;SDS011;9663;48.996;8.334;2023-03-31T05:28:03;2.92;;;0.98;;
19059;SDS011;9663;48.996;8.334;2023-03-31T05:30:29;3.85;;;1.13;;
19059;SDS011;9663;48.996;8.334;2023-03-31T05:32:55;3.08;;;0.95;;
19059;SDS011;9663;48.996;8.334;2023-03-31T05:35:21;3.25;;;1.30;;
19059;SDS011;9663;48.996;8.334;2023-03-31T05:37:48;2.92;;;1.00;;
19059;SDS011;9663;48.996;8.334;2023-03-31T05:40:14;2.83;;;1.10;;
19059;SDS011;9663;48.996;8.334;2023-03-31T05:42:39;2.90;;;1.08;;
19059;SDS011;9663;48.996;8.334;2023-03-31T05:45:06;3.72;;;1.20;;
19059;SDS011;9663;48.996;8.334;2023-03-31T05:47:34;2.88;;;1.10;;
19059;SDS011;9663;48.996;8.334;2023-03-31T05:50:00;3.03;;;1.10;;
19059;SDS011;9663;48.996;8.334;2023-03-31T05:52:28;4.13;;;1.45;;
19059;SDS011;9663;48.996;8.334;2023-03-31T05:54:53;3.75;;;1.40;;
19059;SDS011;9663;48.996;8.334;2023-03-31T05:57:19;3.90;;;1.38;;
19059;SDS011;9663;48.996;8.334;2023-03-31T05:59:44;3.58;;;1.20;;
19059;SDS011;9663;48.996;8.334;2023-03-31T06:02:11;4.25;;;1.30;;
19059;SDS011;9663;48.996;8.334;2023-03-31T06:04:39;3.88;;;1.10;;
19059;SDS011;9663;48.996;8.334;2023-03-31T06:07:06;4.25;;;1.38;;
19059;SDS011;9663;48.996;8.334;2023-03-31T06:09:32;4.07;;;1.30;;
19059;SDS011;9663;48.996;8.334;2023-03-31T06:11:58;3.95;;;1.23;;
19059;SDS011;9663;48.996;8.334;2023-03-31T06:14:23;4.45;;;1.55;;
19059;SDS011;9663;48.996;8.334;2023-03-31T06:16:49;2.90;;;1.17;;
19059;SDS011;9663;48.996;8.334;2023-03-31T06:19:15;3.88;;;1.58;;
19059;SDS011;9663;48.996;8.334;2023-03-31T06:21:40;4.30;;;1.27;;
19059;SDS011;9663;48.996;8.334;2023-03-31T06:24:07;4.07;;;1.35;;
19059;SDS011;9663;48.996;8.334;2023-03-31T06:26:34;4.18;;;1.45;;
19059;SDS011;9663;48.996;8.334;2023-03-31T06:29:00;3.70;;;1.50;;
19059;SDS011;9663;48.996;8.334;2023-03-31T06:31:25;3.47;;;1.30;;
19059;SDS011;9663;48.996;8.334;2023-03-31T06:33:51;5.47;;;1.52;;
19059;SDS011;9663;48.996;8.334;2023-03-31T06:36:18;4.97;;;1.50;;
19059;SDS011;9663;48.996;8.334;2023-03-31T06:38:46;4.68;;;1.40;;
19059;SDS011;9663;48.996;8.334;2023-03-31T06:41:18;3.90;;;1.70;;
19059;SDS011;9663;48.996;8.334;2023-03-31T06:43:45;4.90;;;1.63;;
19059;SDS011;9663;48.996;8.334;2023-03-31T06:46:11;4.60;;;1.52;;
19059;SDS011;9663;48.996;8.334;2023-03-31T06:48:37;5.10;;;1.40;;
19059;SDS011;9663;48.996;8.334;2023-03-31T06:51:04;6.05;;;2.00;;
19059;SDS011;9663;48.996;8.334;2023-03-31T06:53:31;4.07;;;1.70;;
19059;SDS011;9663;48.996;8.334;2023-03-31T06:55:58;5.72;;;2.10;;
19059;SDS011;9663;48.996;8.334;2023-03-31T06:58:25;5.22;;;1.70;;
19059;SDS011;9663;48.996;8.334;2023-03-31T07:00:50;3.97;;;1.70;;
19059;SDS011;9663;48.996;8.334;2023-03-31T07:03:16;4.18;;;1.70;;
19059;SDS011;9663;48.996;8.334;2023-03-31T07:05:53;3.92;;;1.67;;
19059;SDS011;9663;48.996;8.334;2023-03-31T07:08:20;4.32;;;1.80;;
19059;SDS011;9663;48.996;8.334;2023-03-31T07:10:46;5.68;;;1.70;;
19059;SDS011;9663;48.996;8.334;2023-03-31T07:13:17;4.80;;;1.67;;
19059;SDS011;9663;48.996;8.334;2023-03-31T07:15:43;5.22;;;1.60;;
19059;SDS011;9663;48.996;8.334;2023-03-31T07:18:12;5.43;;;1.60;;
19059;SDS011;9663;48.996;8.334;2023-03-31T07:20:39;4.95;;;1.70;;
19059;SDS011;9663;48.996;8.334;2023-03-31T07:23:06;4.18;;;1.30;;
19059;SDS011;9663;48.996;8.334;2023-03-31T07:25:32;4.05;;;1.80;;
19059;SDS011;9663;48.996;8.334;2023-03-31T07:27:59;3.72;;;1.30;;
19059;SDS011;9663;48.996;8.334;2023-03-31T07:30:25;3.92;;;1.50;;
19059;SDS011;9663;48.996;8.334;2023-03-31T07:32:52;4.72;;;1.42;;
19059;SDS011;9663;48.996;8.334;2023-03-31T07:35:18;4.47;;;1.50;;
19059;SDS011;9663;48.996;8.334;2023-03-31T07:37:47;3.83;;;1.30;;
19059;SDS011;9663;48.996;8.334;2023-03-31T07:40:16;2.50;;;0.80;;
19059;SDS011;9663;48.996;8.334;2023-03-31T07:42:47;3.25;;;1.10;;
19059;SDS011;9663;48.996;8.334;2023-03-31T07:45:16;2.72;;;1.00;;
19059;SDS011;9663;48.996;8.334;2023-03-31T07:47:46;2.70;;;1.02;;
19059;SDS011;9663;48.996;8.334;2023-03-31T07:50:13;2.92;;;1.10;;
19059;SDS011;9663;48.996;8.334;2023-03-31T07:52:40;2.95;;;1.20;;
19059;SDS011;9663;48.996;8.334;2023-03-31T07:55:06;3.60;;;1.08;;
19059;SDS011;9663;48.996;8.334;2023-03-31T07:57:34;2.88;;;1.05;;
19059;SDS011;9663;48.996;8.334;2023-03-31T08:00:01;2.50;;;1.00;;
19059;SDS011;9663;48.996;8.334;2023-03-31T08:02:31;3.15;;;1.00;;
19059;SDS011;9663;48.996;8.334;2023-03-31T08:04:57;2.97;;;1.10;;
19059;SDS011;9663;48.996;8.334;2023-03-31T08:07:23;2.80;;;1.10;;
19059;SDS011;9663;48.996;8.334;2023-03-31T08:09:50;2.83;;;0.90;;
19059;SDS011;9663;48.996;8.334;2023-03-31T08:12:15;2.58;;;0.95;;
19059;SDS011;9663;48.996;8.334;2023-03-31T08:14:41;2.53;;;1.00;;
19059;SDS011;9663;48.996;8.334;2023-03-31T08:17:07;3.17;;;1.05;;
19059;SDS011;9663;48.996;8.334;2023-03-31T08:19:35;2.33;;;0.95;;
19059;SDS011;9663;48.996;8.334;2023-03-31T08:22:01;3.00;;;1.00;;
19059;SDS011;9663;48.996;8.334;2023-03-31T08:24:27;2.90;;;1.15;;
19059;SDS011;9663;48.996;8.334;2023-03-31T08:26:52;3.88;;;1.10;;
19059;SDS011;9663;48.996;8.334;2023-03-31T08:29:18;5.55;;;1.33;;
19059;SDS011;9663;48.996;8.334;2023-03-31T08:31:44;4.03;;;1.00;;
19059;SDS011;9663;48.996;8.334;2023-03-31T08:34:09;1.92;;;0.77;;
19059;SDS011;9663;48.996;8.334;2023-03-31T08:36:35;4.15;;;1.10;;
19059;SDS011;9663;48.996;8.334;2023-03-31T08:39:01;3.15;;;1.23;;
19059;SDS011;9663;48.996;8.334;2023-03-31T08:41:35;3.08;;;1.00;;
19059;SDS011;9663;48.996;8.334;2023-03-31T08:45:01;2.78;;;1.00;;
19059;SDS011;9663;48.996;8.334;2023-03-31T08:47:39;3.00;;;1.00;;
19059;SDS011;9663;48.996;8.334;2023-03-31T08:50:10;4.38;;;1.15;;
19059;SDS011;9663;48.996;8.334;2023-03-31T08:55:51;2.88;;;1.13;;
19059;SDS011;9663;48.996;8.334;2023-03-31T09:01:07;3.30;;;1.05;;
19059;SDS011;9663;48.996;8.334;2023-03-31T09:12:22;2.83;;;1.00;;
19059;SDS011;9663;48.996;8.334;2023-03-31T09:15:31;3.20;;;1.10;;
19059;SDS011;9663;48.996;8.334;2023-03-31T09:18:18;3.50;;;1.00;;
19059;SDS011;9663;48.996;8.334;2023-03-31T09:20:59;3.47;;;1.17;;
19059;SDS011;9663;48.996;8.334;2023-03-31T09:26:08;4.25;;;1.33;;
19059;SDS011;9663;48.996;8.334;2023-03-31T09:28:47;2.92;;;1.00;;
19059;SDS011;9663;48.996;8.334;2023-03-31T09:31:16;3.20;;;1.10;;
19059;SDS011;9663;48.996;8.334;2023-03-31T09:33:45;4.50;;;1.38;;
19059;SDS011;9663;48.996;8.334;2023-03-31T09:36:16;3.67;;;1.20;;
19059;SDS011;9663;48.996;8.334;2023-03-31T09:38:47;4.05;;;1.30;;
19059;SDS011;9663;48.996;8.334;2023-03-31T09:41:15;2.95;;;1.05;;
19059;SDS011;9663;48.996;8.334;2023-03-31T09:43:45;5.20;;;1.25;;
19059;SDS011;9663;48.996;8.334;2023-03-31T09:48:59;5.70;;;1.50;;
19059;SDS011;9663;48.996;8.334;2023-03-31T09:51:31;3.15;;;1.08;;
19059;SDS011;9663;48.996;8.334;2023-03-31T09:54:06;3.92;;;1.10;;
19059;SDS011;9663;48.996;8.334;2023-03-31T09:57:15;4.20;;;1.13;;
19059;SDS011;9663;48.996;8.334;2023-03-31T10:02:38;4.93;;;1.60;;
19059;SDS011;9663;48.996;8.334;2023-03-31T10:05:38;6.63;;;1.92;;
19059;SDS011;9663;48.996;8.334;2023-03-31T10:08:32;5.55;;;1.40;;
19059;SDS011;9663;48.996;8.334;2023-03-31T10:11:12;3.70;;;1.35;;
19059;SDS011;9663;48.996;8.334;2023-03-31T10:16:28;4.97;;;1.40;;
19059;SDS011;9663;48.996;8.334;2023-03-31T10:19:23;4.93;;;1.30;;
19059;SDS011;9663;48.996;8.334;2023-03-31T10:22:05;6.38;;;1.38;;
19059;SDS011;9663;48.996;8.334;2023-03-31T10:24:52;5.47;;;1.60;;
19059;SDS011;9663;48.996;8.334;2023-03-31T10:29:54;4.10;;;1.08;;
19059;SDS011;9663;48.996;8.334;2023-03-31T10:32:27;4.18;;;1.30;;
19059;SDS011;9663;48.996;8.334;2023-03-31T10:35:05;4.35;;;1.27;;
19059;SDS011;9663;48.996;8.334;2023-03-31T10:38:04;6.40;;;1.55;;
19059;SDS011;9663;48.996;8.334;2023-03-31T10:40:37;5.40;;;1.55;;
19059;SDS011;9663;48.996;8.334;2023-03-31T10:43:15;5.00;;;1.55;;
19059;SDS011;9663;48.996;8.334;2023-03-31T10:45:48;6.55;;;1.63;;
19059;SDS011;9663;48.996;8.334;2023-03-31T10:48:26;6.72;;;1.50;;
19059;SDS011;9663;48.996;8.334;2023-03-31T10:50:52;5.05;;;1.23;;
19059;SDS011;9663;48.996;8.334;2023-03-31T10:53:22;3.92;;;1.10;;
19059;SDS011;9663;48.996;8.334;2023-03-31T11:05:02;2.45;;;0.77;;
19059;SDS011;9663;48.996;8.334;2023-03-31T11:13:07;1.65;;;0.60;;
19059;SDS011;9663;48.996;8.334;2023-03-31T11:33:42;2.60;;;0.70;;
19059;SDS011;9663;48.996;8.334;2023-03-31T11:43:21;1.80;;;0.60;;
19059;SDS011;9663;48.996;8.334;2023-03-31T11:45:32;2.00;;;0.60;;
19059;SDS011;9663;48.996;8.334;2023-03-31T11:48:20;0.95;;;0.50;;
19059;SDS011;9663;48.996;8.334;2023-03-31T11:51:12;2.35;;;0.60;;
19059;SDS011;9663;48.996;8.334;2023-03-31T11:53:44;2.90;;;0.80;;
19059;SDS011;9663;48.996;8.334;2023-03-31T11:56:13;1.52;;;0.50;;
19059;SDS011;9663;48.996;8.334;2023-03-31T12:01:15;2.70;;;0.60;;
19059;SDS011;9663;48.996;8.334;2023-03-31T12:03:53;1.80;;;0.60;;
19059;SDS011;9663;48.996;8.334;2023-03-31T12:06:41;2.10;;;0.60;;
19059;SDS011;9663;48.996;8.334;2023-03-31T12:09:25;1.17;;;0.50;;
19059;SDS011;9663;48.996;8.334;2023-03-31T12:12:29;2.10;;;0.65;;
19059;SDS011;9663;48.996;8.334;2023-03-31T12:15:28;1.88;;;0.68;;
19059;SDS011;9663;48.996;8.334;2023-03-31T12:18:13;2.55;;;0.70;;
19059;SDS011;9663;48.996;8.334;2023-03-31T12:20:54;2.65;;;0.80;;
19059;SDS011;9663;48.996;8.334;2023-03-31T12:23:24;1.75;;;0.60;;
19059;SDS011;9663;48.996;8.334;2023-03-31T12:31:52;2.38;;;0.77;;
19059;SDS011;9663;48.996;8.334;2023-03-31T12:34:22;0.95;;;0.50;;
19059;SDS011;9663;48.996;8.334;2023-03-31T12:37:04;1.63;;;0.60;;
19059;SDS011;9663;48.996;8.334;2023-03-31T12:40:06;2.25;;;0.70;;
19059;SDS011;9663;48.996;8.334;2023-03-31T12:47:04;1.42;;;0.60;;
19059;SDS011;9663;48.996;8.334;2023-03-31T12:49:58;1.98;;;1.00;;
19059;SDS011;9663;48.996;8.334;2023-03-31T12:53:02;1.40;;;0.60;;
19059;SDS011;9663;48.996;8.334;2023-03-31T12:55:45;3.17;;;0.80;;
19059;SDS011;9663;48.996;8.334;2023-03-31T13:06:00;2.85;;;0.80;;
19059;SDS011;9663;48.996;8.334;2023-03-31T13:11:36;2.50;;;0.80;;
19059;SDS011;9663;48.996;8.334;2023-03-31T13:14:16;2.30;;;0.60;;
19059;SDS011;9663;48.996;8.334;2023-03-31T13:17:10;2.58;;;0.75;;
19059;SDS011;9663;48.996;8.334;2023-03-31T13:19:45;1.23;;;0.60;;
19059;SDS011;9663;48.996;8.334;2023-03-31T13:30:48;2.38;;;0.70;;
19059;SDS011;9663;48.996;8.334;2023-03-31T13:33:22;2.58;;;0.70;;
19059;SDS011;9663;48.996;8.334;2023-03-31T13:50:02;2.15;;;0.80;;
19059;SDS011;9663;48.996;8.334;2023-03-31T14:07:33;2.78;;;0.70;;
19059;SDS011;9663;48.996;8.334;2023-03-31T14:10:25;2.65;;;0.73;;
19059;SDS011;9663;48.996;8.334;2023-03-31T14:15:48;2.92;;;0.90;;
19059;SDS011;9663;48.996;8.334;2023-03-31T14:18:27;2.60;;;0.65;;
19059;SDS011;9663;48.996;8.334;2023-03-31T14:21:11;2.65;;;0.77;;
19059;SDS011;9663;48.996;8.334;2023-03-31T14:24:35;2.10;;;0.70;;
19059;SDS011;9663;48.996;8.334;2023-03-31T14:27:29;1.95;;;0.63;;
19059;SDS011;9663;48.996;8.334;2023-03-31T14:30:40;2.60;;;0.80;;
19059;SDS011;9663;48.996;8.334;2023-03-31T14:37:01;1.77;;;0.60;;
19059;SDS011;9663;48.996;8.334;2023-03-31T14:39:48;1.65;;;0.70;;
19059;SDS011;9663;48.996;8.334;2023-03-31T14:42:20;1.38;;;0.57;;
19059;SDS011;9663;48.996;8.334;2023-03-31T14:44:54;2.10;;;0.70;;
19059;SDS011;9663;48.996;8.334;2023-03-31T14:47:23;1.40;;;0.63;;
19059;SDS011;9663;48.996;8.334;2023-03-31T14:50:07;2.22;;;0.80;;
19059;SDS011;9663;48.996;8.334;2023-03-31T14:52:39;1.90;;;0.68;;
19059;SDS011;9663;48.996;8.334;2023-03-31T14:55:16;2.45;;;0.75;;
19059;SDS011;9663;48.996;8.334;2023-03-31T14:57:50;1.52;;;0.60;;
19059;SDS011;9663;48.996;8.334;2023-03-31T15:00:23;2.78;;;0.90;;
19059;SDS011;9663;48.996;8.334;2023-03-31T15:02:54;2.63;;;0.75;;
19059;SDS011;9663;48.996;8.334;2023-03-31T15:05:26;2.13;;;0.80;;
19059;SDS011;9663;48.996;8.334;2023-03-31T15:10:50;4.13;;;0.90;;
19059;SDS011;9663;48.996;8.334;2023-03-31T15:13:42;3.00;;;0.80;;
19059;SDS011;9663;48.996;8.334;2023-03-31T15:19:13;2.22;;;0.65;;
19059;SDS011;9663;48.996;8.334;2023-03-31T15:21:42;1.55;;;0.68;;
19059;SDS011;9663;48.996;8.334;2023-03-31T15:24:13;2.10;;;0.70;;
19059;SDS011;9663;48.996;8.334;2023-03-31T15:26:44;2.35;;;0.82;;
19059;SDS011;9663;48.996;8.334;2023-03-31T15:32:12;2.63;;;0.70;;
19059;SDS011;9663;48.996;8.334;2023-03-31T15:34:42;2.22;;;0.90;;
19059;SDS011;9663;48.996;8.334;2023-03-31T15:37:10;2.95;;;0.90;;
19059;SDS011;9663;48.996;8.334;2023-03-31T15:39:36;2.70;;;0.80;;
19059;SDS011;9663;48.996;8.334;2023-03-31T15:42:04;2.50;;;0.70;;
19059;SDS011;9663;48.996;8.334;2023-03-31T15:47:12;2.97;;;0.75;;
19059;SDS011;9663;48.996;8.334;2023-03-31T15:49:49;4.03;;;0.82;;
19059;SDS011;9663;48.996;8.334;2023-03-31T15:52:27;2.03;;;0.80;;
19059;SDS011;9663;48.996;8.334;2023-03-31T15:55:22;2.78;;;0.90;;
19059;SDS011;9663;48.996;8.334;2023-03-31T15:57:53;3.95;;;0.80;;
19059;SDS011;9663;48.996;8.334;2023-03-31T16:11:08;1.80;;;0.63;;
19059;SDS011;9663;48.996;8.334;2023-03-31T16:13:48;1.60;;;0.50;;
19059;SDS011;9663;48.996;8.334;2023-03-31T16:16:24;2.47;;;0.60;;
19059;SDS011;9663;48.996;8.334;2023-03-31T16:18:53;1.75;;;0.70;;
19059;SDS011;9663;48.996;8.334;2023-03-31T16:21:44;1.73;;;0.60;;
19059;SDS011;9663;48.996;8.334;2023-03-31T16:24:16;1.35;;;0.57;;
19059;SDS011;9663;48.996;8.334;2023-03-31T16:26:59;1.52;;;0.70;;
19059;SDS011;9663;48.996;8.334;2023-03-31T16:29:30;1.38;;;0.50;;
19059;SDS011;9663;48.996;8.334;2023-03-31T16:32:17;1.13;;;0.60;;
19059;SDS011;9663;48.996;8.334;2023-03-31T16:34:51;1.88;;;0.50;;
19059;SDS011;9663;48.996;8.334;2023-03-31T16:37:23;1.15;;;0.50;;
19059;SDS011;9663;48.996;8.334;2023-03-31T16:39:50;1.27;;;0.68;;
19059;SDS011;9663;48.996;8.334;2023-03-31T16:42:16;1.13;;;0.50;;
19059;SDS011;9663;48.996;8.334;2023-03-31T16:44:43;2.45;;;0.60;;
19059;SDS011;9663;48.996;8.334;2023-03-31T16:47:10;1.63;;;0.70;;
19059;SDS011;9663;48.996;8.334;2023-03-31T16:49:37;1.55;;;0.60;;
19059;SDS011;9663;48.996;8.334;2023-03-31T16:52:03;1.73;;;0.60;;
19059;SDS011;9663;48.996;8.334;2023-03-31T16:54:29;1.42;;;0.60;;
19059;SDS011;9663;48.996;8.334;2023-03-31T16:56:55;1.58;;;0.60;;
19059;SDS011;9663;48.996;8.334;2023-03-31T16:59:22;1.92;;;0.80;;
19059;SDS011;9663;48.996;8.334;2023-03-31T17:01:48;0.88;;;0.50;;
19059;SDS011;9663;48.996;8.334;2023-03-31T17:04:15;2.13;;;0.80;;
19059;SDS011;9663;48.996;8.334;2023-03-31T17:06:41;2.38;;;0.70;;
19059;SDS011;9663;48.996;8.334;2023-03-31T17:09:08;1.98;;;0.70;;
19059;SDS011;9663;48.996;8.334;2023-03-31T17:11:34;0.93;;;0.45;;
19059;SDS011;9663;48.996;8.334;2023-03-31T17:14:00;2.88;;;0.80;;
19059;SDS011;9663;48.996;8.334;2023-03-31T17:16:26;2.35;;;0.70;;
19059;SDS011;9663;48.996;8.334;2023-03-31T17:18:52;1.90;;;0.68;;
19059;SDS011;9663;48.996;8.334;2023-03-31T17:21:18;1.55;;;0.68;;
19059;SDS011;9663;48.996;8.334;2023-03-31T17:23:44;2.03;;;0.70;;
19059;SDS011;9663;48.996;8.334;2023-03-31T17:26:11;2.05;;;0.55;;
19059;SDS011;9663;48.996;8.334;2023-03-31T17:28:38;2.00;;;0.60;;
19059;SDS011;9663;48.996;8.334;2023-03-31T17:33:38;2.78;;;0.80;;
19059;SDS011;9663;48.996;8.334;2023-03-31T17:36:05;1.52;;;0.55;;
19059;SDS011;9663;48.996;8.334;2023-03-31T17:38:32;1.98;;;0.77;;
19059;SDS011;9663;48.996;8.334;2023-03-31T17:41:02;1.13;;;0.45;;
19059;SDS011;9663;48.996;8.334;2023-03-31T17:43:28;1.05;;;0.40;;
19059;SDS011;9663;48.996;8.334;2023-03-31T17:46:04;2.45;;;0.90;;
19059;SDS011;9663;48.996;8.334;2023-03-31T17:48:33;2.40;;;0.70;;
19059;SDS011;9663;48.996;8.334;2023-03-31T17:51:04;1.17;;;0.57;;
19059;SDS011;9663;48.996;8.334;2023-03-31T17:53:39;1.30;;;0.50;;
19059;SDS011;9663;48.996;8.334;2023-03-31T17:56:07;1.90;;;0.60;;
19059;SDS011;9663;48.996;8.334;2023-03-31T17:58:33;1.40;;;0.60;;
19059;SDS011;9663;48.996;8.334;2023-03-31T18:00:59;1.10;;;0.50;;
19059;SDS011;9663;48.996;8.334;2023-03-31T18:03:28;1.58;;;0.68;;
19059;SDS011;9663;48.996;8.334;2023-03-31T18:05:54;1.05;;;0.60;;
19059;SDS011;9663;48.996;8.334;2023-03-31T18:08:20;1.52;;;0.55;;
19059;SDS011;9663;48.996;8.334;2023-03-31T18:10:46;1.88;;;0.60;;
19059;SDS011;9663;48.996;8.334;2023-03-31T18:13:11;2.60;;;0.60;;
19059;SDS011;9663;48.996;8.334;2023-03-31T18:15:37;1.35;;;0.52;;
19059;SDS011;9663;48.996;8.334;2023-03-31T18:18:03;1.80;;;0.60;;
19059;SDS011;9663;48.996;8.334;2023-03-31T18:20:29;1.23;;;0.60;;
19059;SDS011;9663;48.996;8.334;2023-03-31T18:22:56;3.65;;;0.80;;
19059;SDS011;9663;48.996;8.334;2023-03-31T18:25:22;7.07;;;0.80;;
19059;SDS011;9663;48.996;8.334;2023-03-31T18:27:48;2.45;;;0.80;;
19059;SDS011;9663;48.996;8.334;2023-03-31T18:30:14;2.58;;;0.70;;
19059;SDS011;9663;48.996;8.334;2023-03-31T18:32:40;2.55;;;0.70;;
19059;SDS011;9663;48.996;8.334;2023-03-31T18:35:06;2.17;;;0.73;;
19059;SDS011;9663;48.996;8.334;2023-03-31T18:37:32;2.92;;;0.80;;
19059;SDS011;9663;48.996;8.334;2023-03-31T18:39:58;4.40;;;0.80;;
19059;SDS011;9663;48.996;8.334;2023-03-31T18:42:24;2.78;;;0.80;;
19059;SDS011;9663;48.996;8.334;2023-03-31T18:44:51;3.05;;;0.80;;
19059;SDS011;9663;48.996;8.334;2023-03-31T18:47:17;1.77;;;0.70;;